sensor_id;sensor_type;location;lat;lon;timestamp;temperature;humidity
4727;DHT22;2377;51.734;8.950;2024-02-21T00:00:10;7.30;12.60
4727;DHT22;2377;51.734;8.950;2024-02-21T00:02:42;7.30;3.10
4727;DHT22;2377;51.734;8.950;2024-02-21T00:05:10;7.40;1.00
4727;DHT22;2377;51.734;8.950;2024-02-21T00:07:39;7.40;2.40
4727;DHT22;2377;51.734;8.950;2024-02-21T00:10:08;7.40;5.00
4727;DHT22;2377;51.734;8.950;2024-02-21T00:12:37;7.40;8.60
4727;DHT22;2377;51.734;8.950;2024-02-21T00:15:09;7.30;15.30
4727;DHT22;2377;51.734;8.950;2024-02-21T00:17:38;7.30;13.90
4727;DHT22;2377;51.734;8.950;2024-02-21T00:20:12;7.40;15.50
4727;DHT22;2377;51.734;8.950;2024-02-21T00:22:40;7.30;13.40
4727;DHT22;2377;51.734;8.950;2024-02-21T00:25:08;7.40;19.70
4727;DHT22;2377;51.734;8.950;2024-02-21T00:27:37;7.30;25.80
4727;DHT22;2377;51.734;8.950;2024-02-21T00:30:06;7.30;24.30
4727;DHT22;2377;51.734;8.950;2024-02-21T00:32:36;7.30;25.70
4727;DHT22;2377;51.734;8.950;2024-02-21T00:35:05;7.40;26.00
4727;DHT22;2377;51.734;8.950;2024-02-21T00:37:33;7.30;22.80
4727;DHT22;2377;51.734;8.950;2024-02-21T00:40:02;7.40;26.70
4727;DHT22;2377;51.734;8.950;2024-02-21T00:42:36;7.40;30.00
4727;DHT22;2377;51.734;8.950;2024-02-21T00:45:08;7.40;1.00
4727;DHT22;2377;51.734;8.950;2024-02-21T00:47:40;7.50;20.50
4727;DHT22;2377;51.734;8.950;2024-02-21T00:50:09;7.50;24.70
4727;DHT22;2377;51.734;8.950;2024-02-21T00:52:39;7.40;30.00
4727;DHT22;2377;51.734;8.950;2024-02-21T00:55:09;7.40;20.10
4727;DHT22;2377;51.734;8.950;2024-02-21T00:57:37;7.50;19.90
4727;DHT22;2377;51.734;8.950;2024-02-21T01:00:06;7.40;10.90
4727;DHT22;2377;51.734;8.950;2024-02-21T01:02:36;7.50;20.30
4727;DHT22;2377;51.734;8.950;2024-02-21T01:05:05;7.50;21.70
4727;DHT22;2377;51.734;8.950;2024-02-21T01:07:33;7.40;27.00
4727;DHT22;2377;51.734;8.950;2024-02-21T01:10:00;7.50;28.00
4727;DHT22;2377;51.734;8.950;2024-02-21T01:12:28;7.40;36.00
4727;DHT22;2377;51.734;8.950;2024-02-21T01:14:55;7.30;36.60
4727;DHT22;2377;51.734;8.950;2024-02-21T01:17:25;7.30;40.10
4727;DHT22;2377;51.734;8.950;2024-02-21T01:19:52;7.30;22.20
4727;DHT22;2377;51.734;8.950;2024-02-21T01:22:23;7.50;30.20
4727;DHT22;2377;51.734;8.950;2024-02-21T01:24:50;7.40;32.10
4727;DHT22;2377;51.734;8.950;2024-02-21T01:27:17;7.40;32.80
4727;DHT22;2377;51.734;8.950;2024-02-21T01:29:48;7.30;29.50
4727;DHT22;2377;51.734;8.950;2024-02-21T01:32:23;7.40;21.90
4727;DHT22;2377;51.734;8.950;2024-02-21T01:34:53;7.40;25.60
4727;DHT22;2377;51.734;8.950;2024-02-21T01:37:22;7.30;31.80
4727;DHT22;2377;51.734;8.950;2024-02-21T01:39:50;7.40;22.40
4727;DHT22;2377;51.734;8.950;2024-02-21T01:42:18;7.40;26.50
4727;DHT22;2377;51.734;8.950;2024-02-21T01:44:47;7.40;27.80
4727;DHT22;2377;51.734;8.950;2024-02-21T01:47:15;7.30;21.00
4727;DHT22;2377;51.734;8.950;2024-02-21T01:49:44;7.40;30.60
4727;DHT22;2377;51.734;8.950;2024-02-21T01:52:16;7.40;20.30
4727;DHT22;2377;51.734;8.950;2024-02-21T01:54:47;7.40;16.70
4727;DHT22;2377;51.734;8.950;2024-02-21T01:57:17;7.40;12.60
4727;DHT22;2377;51.734;8.950;2024-02-21T01:59:45;7.40;8.90
4727;DHT22;2377;51.734;8.950;2024-02-21T02:02:13;7.40;14.80
4727;DHT22;2377;51.734;8.950;2024-02-21T02:04:45;7.50;7.70
4727;DHT22;2377;51.734;8.950;2024-02-21T02:07:13;7.50;2.60
4727;DHT22;2377;51.734;8.950;2024-02-21T02:09:45;7.50;1.00
4727;DHT22;2377;51.734;8.950;2024-02-21T02:12:17;7.50;1.00
4727;DHT22;2377;51.734;8.950;2024-02-21T02:14:44;7.50;1.00
4727;DHT22;2377;51.734;8.950;2024-02-21T02:17:12;7.50;1.00
4727;DHT22;2377;51.734;8.950;2024-02-21T02:19:41;7.50;1.00
4727;DHT22;2377;51.734;8.950;2024-02-21T02:22:15;7.50;1.00
4727;DHT22;2377;51.734;8.950;2024-02-21T02:24:55;7.40;1.00
4727;DHT22;2377;51.734;8.950;2024-02-21T02:27:24;7.40;1.00
4727;DHT22;2377;51.734;8.950;2024-02-21T02:29:52;7.40;1.00
4727;DHT22;2377;51.734;8.950;2024-02-21T02:32:19;7.40;1.00
4727;DHT22;2377;51.734;8.950;2024-02-21T02:34:49;7.40;1.00
4727;DHT22;2377;51.734;8.950;2024-02-21T02:37:17;7.40;1.00
4727;DHT22;2377;51.734;8.950;2024-02-21T02:39:45;7.40;1.00
4727;DHT22;2377;51.734;8.950;2024-02-21T02:42:17;7.50;1.00
4727;DHT22;2377;51.734;8.950;2024-02-21T02:44:44;7.50;1.00
4727;DHT22;2377;51.734;8.950;2024-02-21T02:47:12;7.50;1.00
4727;DHT22;2377;51.734;8.950;2024-02-21T02:49:40;7.40;1.00
4727;DHT22;2377;51.734;8.950;2024-02-21T02:52:10;7.50;1.00
4727;DHT22;2377;51.734;8.950;2024-02-21T02:54:38;7.50;1.00
4727;DHT22;2377;51.734;8.950;2024-02-21T02:57:06;7.50;1.00
4727;DHT22;2377;51.734;8.950;2024-02-21T02:59:35;7.50;1.00
4727;DHT22;2377;51.734;8.950;2024-02-21T03:02:02;7.50;1.00
4727;DHT22;2377;51.734;8.950;2024-02-21T03:04:29;7.50;1.00
4727;DHT22;2377;51.734;8.950;2024-02-21T03:06:57;7.40;1.00
4727;DHT22;2377;51.734;8.950;2024-02-21T03:09:29;7.50;1.00
4727;DHT22;2377;51.734;8.950;2024-02-21T03:11:57;7.40;1.00
4727;DHT22;2377;51.734;8.950;2024-02-21T03:14:31;7.50;1.00
4727;DHT22;2377;51.734;8.950;2024-02-21T03:17:01;7.50;1.00
4727;DHT22;2377;51.734;8.950;2024-02-21T03:19:30;7.40;1.00
4727;DHT22;2377;51.734;8.950;2024-02-21T03:21:59;7.40;1.00
4727;DHT22;2377;51.734;8.950;2024-02-21T03:24:27;7.50;1.00
4727;DHT22;2377;51.734;8.950;2024-02-21T03:26:56;7.40;1.00
4727;DHT22;2377;51.734;8.950;2024-02-21T03:29:25;7.30;1.00
4727;DHT22;2377;51.734;8.950;2024-02-21T03:31:52;7.40;1.00
4727;DHT22;2377;51.734;8.950;2024-02-21T03:34:21;7.40;1.00
4727;DHT22;2377;51.734;8.950;2024-02-21T03:36:50;7.40;1.00
4727;DHT22;2377;51.734;8.950;2024-02-21T03:39:25;7.30;1.00
4727;DHT22;2377;51.734;8.950;2024-02-21T03:41:57;7.40;1.00
4727;DHT22;2377;51.734;8.950;2024-02-21T03:44:26;7.40;1.00
4727;DHT22;2377;51.734;8.950;2024-02-21T03:46:55;7.40;1.00
4727;DHT22;2377;51.734;8.950;2024-02-21T03:49:24;7.40;1.00
4727;DHT22;2377;51.734;8.950;2024-02-21T03:51:53;7.40;1.00
4727;DHT22;2377;51.734;8.950;2024-02-21T03:54:21;7.50;1.00
4727;DHT22;2377;51.734;8.950;2024-02-21T03:56:48;7.40;1.00
4727;DHT22;2377;51.734;8.950;2024-02-21T03:59:15;7.40;1.00
4727;DHT22;2377;51.734;8.950;2024-02-21T04:01:44;7.40;1.00
4727;DHT22;2377;51.734;8.950;2024-02-21T04:04:13;7.50;1.00
4727;DHT22;2377;51.734;8.950;2024-02-21T04:06:48;7.50;1.00
4727;DHT22;2377;51.734;8.950;2024-02-21T04:09:16;7.50;1.00
4727;DHT22;2377;51.734;8.950;2024-02-21T04:11:44;7.50;1.00
4727;DHT22;2377;51.734;8.950;2024-02-21T04:14:14;7.50;1.00
4727;DHT22;2377;51.734;8.950;2024-02-21T04:16:42;7.50;1.00
4727;DHT22;2377;51.734;8.950;2024-02-21T04:19:10;7.40;1.00
4727;DHT22;2377;51.734;8.950;2024-02-21T04:21:40;7.50;1.00
4727;DHT22;2377;51.734;8.950;2024-02-21T04:24:16;7.50;1.00
4727;DHT22;2377;51.734;8.950;2024-02-21T04:26:43;7.50;1.00
4727;DHT22;2377;51.734;8.950;2024-02-21T04:29:13;7.50;1.00
4727;DHT22;2377;51.734;8.950;2024-02-21T04:31:41;7.50;1.00
4727;DHT22;2377;51.734;8.950;2024-02-21T04:34:09;7.50;1.00
4727;DHT22;2377;51.734;8.950;2024-02-21T04:36:39;7.50;1.00
4727;DHT22;2377;51.734;8.950;2024-02-21T04:39:07;7.50;1.00
4727;DHT22;2377;51.734;8.950;2024-02-21T04:41:36;7.50;1.00
4727;DHT22;2377;51.734;8.950;2024-02-21T04:44:04;7.50;1.00
4727;DHT22;2377;51.734;8.950;2024-02-21T04:46:32;7.50;1.00
4727;DHT22;2377;51.734;8.950;2024-02-21T04:48:59;7.50;1.00
4727;DHT22;2377;51.734;8.950;2024-02-21T04:51:34;7.50;1.00
4727;DHT22;2377;51.734;8.950;2024-02-21T04:54:02;7.50;1.00
4727;DHT22;2377;51.734;8.950;2024-02-21T04:56:29;7.40;1.00
4727;DHT22;2377;51.734;8.950;2024-02-21T04:59:00;7.40;1.00
4727;DHT22;2377;51.734;8.950;2024-02-21T05:01:28;7.40;1.00
4727;DHT22;2377;51.734;8.950;2024-02-21T05:03:57;7.30;1.00
4727;DHT22;2377;51.734;8.950;2024-02-21T05:06:24;7.40;1.00
4727;DHT22;2377;51.734;8.950;2024-02-21T05:08:51;7.40;1.00
4727;DHT22;2377;51.734;8.950;2024-02-21T05:11:26;7.40;1.00
4727;DHT22;2377;51.734;8.950;2024-02-21T05:13:55;7.40;1.00
4727;DHT22;2377;51.734;8.950;2024-02-21T05:16:24;7.50;1.00
4727;DHT22;2377;51.734;8.950;2024-02-21T05:18:52;7.40;1.00
4727;DHT22;2377;51.734;8.950;2024-02-21T05:21:22;7.40;1.00
4727;DHT22;2377;51.734;8.950;2024-02-21T05:23:51;7.40;1.00
4727;DHT22;2377;51.734;8.950;2024-02-21T05:26:22;7.40;1.00
4727;DHT22;2377;51.734;8.950;2024-02-21T05:28:57;7.40;1.00
4727;DHT22;2377;51.734;8.950;2024-02-21T05:31:43;7.40;1.00
4727;DHT22;2377;51.734;8.950;2024-02-21T05:34:24;7.40;1.00
4727;DHT22;2377;51.734;8.950;2024-02-21T05:36:52;7.40;1.00
4727;DHT22;2377;51.734;8.950;2024-02-21T05:39:28;7.30;1.00
4727;DHT22;2377;51.734;8.950;2024-02-21T05:41:57;7.40;1.00
4727;DHT22;2377;51.734;8.950;2024-02-21T05:44:27;7.30;1.00
4727;DHT22;2377;51.734;8.950;2024-02-21T05:47:07;7.30;1.00
4727;DHT22;2377;51.734;8.950;2024-02-21T05:49:36;7.40;1.00
4727;DHT22;2377;51.734;8.950;2024-02-21T05:52:04;7.50;1.00
4727;DHT22;2377;51.734;8.950;2024-02-21T05:54:32;7.40;1.00
4727;DHT22;2377;51.734;8.950;2024-02-21T05:57:04;7.40;1.00
4727;DHT22;2377;51.734;8.950;2024-02-21T05:59:33;7.40;1.00
4727;DHT22;2377;51.734;8.950;2024-02-21T06:02:08;7.40;1.00
4727;DHT22;2377;51.734;8.950;2024-02-21T06:04:36;7.40;1.00
4727;DHT22;2377;51.734;8.950;2024-02-21T06:07:05;7.40;1.00
4727;DHT22;2377;51.734;8.950;2024-02-21T06:09:32;7.40;1.00
4727;DHT22;2377;51.734;8.950;2024-02-21T06:12:00;7.40;1.00
4727;DHT22;2377;51.734;8.950;2024-02-21T06:14:28;7.30;1.00
4727;DHT22;2377;51.734;8.950;2024-02-21T06:16:56;7.40;1.00
4727;DHT22;2377;51.734;8.950;2024-02-21T06:19:25;7.40;1.00
4727;DHT22;2377;51.734;8.950;2024-02-21T06:21:52;7.40;1.00
4727;DHT22;2377;51.734;8.950;2024-02-21T06:24:19;7.40;1.00
4727;DHT22;2377;51.734;8.950;2024-02-21T06:26:47;7.50;1.00
4727;DHT22;2377;51.734;8.950;2024-02-21T06:29:17;7.50;1.00
4727;DHT22;2377;51.734;8.950;2024-02-21T06:31:45;7.50;1.00
4727;DHT22;2377;51.734;8.950;2024-02-21T06:34:13;7.40;1.00
4727;DHT22;2377;51.734;8.950;2024-02-21T06:36:45;7.40;1.00
4727;DHT22;2377;51.734;8.950;2024-02-21T06:39:13;7.40;1.00
4727;DHT22;2377;51.734;8.950;2024-02-21T06:41:52;7.40;1.00
4727;DHT22;2377;51.734;8.950;2024-02-21T06:44:21;7.30;1.00
4727;DHT22;2377;51.734;8.950;2024-02-21T06:46:48;7.30;1.00
4727;DHT22;2377;51.734;8.950;2024-02-21T06:49:16;7.40;1.00
4727;DHT22;2377;51.734;8.950;2024-02-21T06:51:47;7.30;1.00
4727;DHT22;2377;51.734;8.950;2024-02-21T06:54:16;7.40;1.00
4727;DHT22;2377;51.734;8.950;2024-02-21T06:56:45;7.40;1.00
4727;DHT22;2377;51.734;8.950;2024-02-21T06:59:13;7.40;1.00
4727;DHT22;2377;51.734;8.950;2024-02-21T07:01:45;7.40;1.00
4727;DHT22;2377;51.734;8.950;2024-02-21T07:04:15;7.40;1.00
4727;DHT22;2377;51.734;8.950;2024-02-21T07:06:52;7.50;1.00
4727;DHT22;2377;51.734;8.950;2024-02-21T07:09:19;7.50;1.00
4727;DHT22;2377;51.734;8.950;2024-02-21T07:11:47;7.50;1.00
4727;DHT22;2377;51.734;8.950;2024-02-21T07:14:14;7.50;1.00
4727;DHT22;2377;51.734;8.950;2024-02-21T07:16:45;7.50;1.00
4727;DHT22;2377;51.734;8.950;2024-02-21T07:19:22;7.50;1.00
4727;DHT22;2377;51.734;8.950;2024-02-21T07:21:49;7.50;1.00
4727;DHT22;2377;51.734;8.950;2024-02-21T07:24:18;7.50;1.00
4727;DHT22;2377;51.734;8.950;2024-02-21T07:26:46;7.50;1.00
4727;DHT22;2377;51.734;8.950;2024-02-21T07:29:16;7.50;1.00
4727;DHT22;2377;51.734;8.950;2024-02-21T07:31:44;7.60;1.00
4727;DHT22;2377;51.734;8.950;2024-02-21T07:34:16;7.60;1.00
4727;DHT22;2377;51.734;8.950;2024-02-21T07:36:45;7.60;1.00
4727;DHT22;2377;51.734;8.950;2024-02-21T07:39:15;7.60;1.00
4727;DHT22;2377;51.734;8.950;2024-02-21T07:41:44;7.60;1.00
4727;DHT22;2377;51.734;8.950;2024-02-21T07:44:12;7.60;1.00
4727;DHT22;2377;51.734;8.950;2024-02-21T07:46:40;7.70;1.00
4727;DHT22;2377;51.734;8.950;2024-02-21T07:49:08;7.70;1.00
4727;DHT22;2377;51.734;8.950;2024-02-21T07:51:38;7.70;1.00
4727;DHT22;2377;51.734;8.950;2024-02-21T07:54:09;7.80;1.00
4727;DHT22;2377;51.734;8.950;2024-02-21T07:56:36;7.80;1.00
4727;DHT22;2377;51.734;8.950;2024-02-21T07:59:05;7.70;1.00
4727;DHT22;2377;51.734;8.950;2024-02-21T08:01:33;7.70;1.00
4727;DHT22;2377;51.734;8.950;2024-02-21T08:04:03;7.80;1.00
4727;DHT22;2377;51.734;8.950;2024-02-21T08:06:31;7.80;1.00
4727;DHT22;2377;51.734;8.950;2024-02-21T08:08:58;7.90;1.00
4727;DHT22;2377;51.734;8.950;2024-02-21T08:11:30;7.90;1.00
4727;DHT22;2377;51.734;8.950;2024-02-21T08:13:57;7.80;1.00
4727;DHT22;2377;51.734;8.950;2024-02-21T08:16:26;7.90;1.00
4727;DHT22;2377;51.734;8.950;2024-02-21T08:18:54;8.00;1.00
4727;DHT22;2377;51.734;8.950;2024-02-21T08:21:25;8.00;1.00
4727;DHT22;2377;51.734;8.950;2024-02-21T08:23:54;8.10;1.00
4727;DHT22;2377;51.734;8.950;2024-02-21T08:26:28;8.20;1.00
4727;DHT22;2377;51.734;8.950;2024-02-21T08:28:58;8.30;1.00
4727;DHT22;2377;51.734;8.950;2024-02-21T08:31:29;8.20;1.00
4727;DHT22;2377;51.734;8.950;2024-02-21T08:33:57;8.20;1.00
4727;DHT22;2377;51.734;8.950;2024-02-21T08:36:31;8.10;1.00
4727;DHT22;2377;51.734;8.950;2024-02-21T08:39:05;8.20;1.00
4727;DHT22;2377;51.734;8.950;2024-02-21T08:41:35;8.10;1.00
4727;DHT22;2377;51.734;8.950;2024-02-21T08:44:03;8.10;1.00
4727;DHT22;2377;51.734;8.950;2024-02-21T08:46:34;8.10;1.00
4727;DHT22;2377;51.734;8.950;2024-02-21T08:49:04;8.10;1.00
4727;DHT22;2377;51.734;8.950;2024-02-21T08:51:33;8.20;1.00
4727;DHT22;2377;51.734;8.950;2024-02-21T08:54:03;8.30;1.00
4727;DHT22;2377;51.734;8.950;2024-02-21T08:56:30;8.30;1.00
4727;DHT22;2377;51.734;8.950;2024-02-21T08:58:59;8.40;1.00
4727;DHT22;2377;51.734;8.950;2024-02-21T09:01:27;8.50;1.00
4727;DHT22;2377;51.734;8.950;2024-02-21T09:04:11;8.40;1.00
4727;DHT22;2377;51.734;8.950;2024-02-21T09:06:41;8.40;1.00
4727;DHT22;2377;51.734;8.950;2024-02-21T09:09:12;8.50;1.00
4727;DHT22;2377;51.734;8.950;2024-02-21T09:11:40;8.50;1.00
4727;DHT22;2377;51.734;8.950;2024-02-21T09:14:07;8.50;99.90
4727;DHT22;2377;51.734;8.950;2024-02-21T09:16:35;8.50;99.90
4727;DHT22;2377;51.734;8.950;2024-02-21T09:19:08;8.40;99.90
4727;DHT22;2377;51.734;8.950;2024-02-21T09:21:37;8.50;99.90
4727;DHT22;2377;51.734;8.950;2024-02-21T09:24:06;8.50;99.90
4727;DHT22;2377;51.734;8.950;2024-02-21T09:26:36;8.50;99.90
4727;DHT22;2377;51.734;8.950;2024-02-21T09:29:05;8.40;99.90
4727;DHT22;2377;51.734;8.950;2024-02-21T09:31:34;8.40;99.90
4727;DHT22;2377;51.734;8.950;2024-02-21T09:34:02;8.50;99.90
4727;DHT22;2377;51.734;8.950;2024-02-21T09:36:35;8.50;99.90
4727;DHT22;2377;51.734;8.950;2024-02-21T09:39:07;8.60;99.90
4727;DHT22;2377;51.734;8.950;2024-02-21T09:41:42;8.50;99.90
4727;DHT22;2377;51.734;8.950;2024-02-21T09:44:14;8.50;99.90
4727;DHT22;2377;51.734;8.950;2024-02-21T09:46:50;8.50;99.90
4727;DHT22;2377;51.734;8.950;2024-02-21T09:49:31;8.60;99.90
4727;DHT22;2377;51.734;8.950;2024-02-21T09:52:03;8.60;99.90
4727;DHT22;2377;51.734;8.950;2024-02-21T09:54:33;8.60;99.90
4727;DHT22;2377;51.734;8.950;2024-02-21T09:57:04;8.70;99.90
4727;DHT22;2377;51.734;8.950;2024-02-21T09:59:33;8.60;99.90
4727;DHT22;2377;51.734;8.950;2024-02-21T10:02:01;8.70;99.90
4727;DHT22;2377;51.734;8.950;2024-02-21T10:04:29;8.70;99.90
4727;DHT22;2377;51.734;8.950;2024-02-21T10:06:58;8.80;99.90
4727;DHT22;2377;51.734;8.950;2024-02-21T10:09:28;8.80;99.90
4727;DHT22;2377;51.734;8.950;2024-02-21T10:12:07;8.80;99.90
4727;DHT22;2377;51.734;8.950;2024-02-21T10:14:36;8.80;99.90
4727;DHT22;2377;51.734;8.950;2024-02-21T10:17:04;9.00;99.90
4727;DHT22;2377;51.734;8.950;2024-02-21T10:19:36;8.90;99.90
4727;DHT22;2377;51.734;8.950;2024-02-21T10:22:07;9.00;99.90
4727;DHT22;2377;51.734;8.950;2024-02-21T10:24:44;9.00;99.90
4727;DHT22;2377;51.734;8.950;2024-02-21T10:27:12;9.00;99.90
4727;DHT22;2377;51.734;8.950;2024-02-21T10:29:40;9.10;99.90
4727;DHT22;2377;51.734;8.950;2024-02-21T10:32:11;9.10;99.90
4727;DHT22;2377;51.734;8.950;2024-02-21T10:34:41;9.20;99.90
4727;DHT22;2377;51.734;8.950;2024-02-21T10:37:11;9.30;99.90
4727;DHT22;2377;51.734;8.950;2024-02-21T10:39:46;9.10;99.90
4727;DHT22;2377;51.734;8.950;2024-02-21T10:42:17;9.10;99.90
4727;DHT22;2377;51.734;8.950;2024-02-21T10:44:51;9.30;99.90
4727;DHT22;2377;51.734;8.950;2024-02-21T10:47:19;9.40;99.90
4727;DHT22;2377;51.734;8.950;2024-02-21T10:50:00;9.50;99.90
4727;DHT22;2377;51.734;8.950;2024-02-21T10:52:47;9.50;99.90
4727;DHT22;2377;51.734;8.950;2024-02-21T10:55:30;9.50;99.90
4727;DHT22;2377;51.734;8.950;2024-02-21T10:58:04;9.60;99.90
4727;DHT22;2377;51.734;8.950;2024-02-21T11:00:33;9.80;99.90
4727;DHT22;2377;51.734;8.950;2024-02-21T11:03:04;9.90;99.90
4727;DHT22;2377;51.734;8.950;2024-02-21T11:05:34;10.00;99.90
4727;DHT22;2377;51.734;8.950;2024-02-21T11:08:06;9.90;99.90
4727;DHT22;2377;51.734;8.950;2024-02-21T11:10:37;10.00;99.90
4727;DHT22;2377;51.734;8.950;2024-02-21T11:13:07;9.90;99.90
4727;DHT22;2377;51.734;8.950;2024-02-21T11:15:36;9.90;99.90
4727;DHT22;2377;51.734;8.950;2024-02-21T11:18:04;10.00;99.90
4727;DHT22;2377;51.734;8.950;2024-02-21T11:20:32;10.00;99.90
4727;DHT22;2377;51.734;8.950;2024-02-21T11:23:08;10.00;99.90
4727;DHT22;2377;51.734;8.950;2024-02-21T11:26:04;10.00;99.90
4727;DHT22;2377;51.734;8.950;2024-02-21T11:28:34;10.10;99.90
4727;DHT22;2377;51.734;8.950;2024-02-21T11:31:10;10.10;99.90
4727;DHT22;2377;51.734;8.950;2024-02-21T11:33:40;10.10;99.90
4727;DHT22;2377;51.734;8.950;2024-02-21T11:36:10;10.10;99.90
4727;DHT22;2377;51.734;8.950;2024-02-21T11:38:38;10.10;99.90
4727;DHT22;2377;51.734;8.950;2024-02-21T11:41:09;10.10;99.90
4727;DHT22;2377;51.734;8.950;2024-02-21T11:43:38;10.00;99.90
4727;DHT22;2377;51.734;8.950;2024-02-21T11:46:15;10.00;99.90
4727;DHT22;2377;51.734;8.950;2024-02-21T11:48:43;10.00;99.90
4727;DHT22;2377;51.734;8.950;2024-02-21T11:51:21;10.00;99.90
4727;DHT22;2377;51.734;8.950;2024-02-21T11:53:55;10.00;99.90
4727;DHT22;2377;51.734;8.950;2024-02-21T11:56:27;10.10;99.90
4727;DHT22;2377;51.734;8.950;2024-02-21T11:58:59;10.10;99.90
4727;DHT22;2377;51.734;8.950;2024-02-21T12:01:27;10.10;99.90
4727;DHT22;2377;51.734;8.950;2024-02-21T12:03:55;10.20;99.90
4727;DHT22;2377;51.734;8.950;2024-02-21T12:06:23;10.20;99.90
4727;DHT22;2377;51.734;8.950;2024-02-21T12:08:50;10.30;99.90
4727;DHT22;2377;51.734;8.950;2024-02-21T12:11:29;10.20;99.90
4727;DHT22;2377;51.734;8.950;2024-02-21T12:14:01;10.20;99.90
4727;DHT22;2377;51.734;8.950;2024-02-21T12:16:31;10.20;99.90
4727;DHT22;2377;51.734;8.950;2024-02-21T12:19:00;10.20;99.90
4727;DHT22;2377;51.734;8.950;2024-02-21T12:21:31;10.20;99.90
4727;DHT22;2377;51.734;8.950;2024-02-21T12:24:12;10.10;99.90
4727;DHT22;2377;51.734;8.950;2024-02-21T12:26:42;10.10;99.90
4727;DHT22;2377;51.734;8.950;2024-02-21T12:29:10;10.10;99.90
4727;DHT22;2377;51.734;8.950;2024-02-21T12:31:38;10.10;99.90
4727;DHT22;2377;51.734;8.950;2024-02-21T12:34:07;10.10;99.90
4727;DHT22;2377;51.734;8.950;2024-02-21T12:36:40;10.10;99.90
4727;DHT22;2377;51.734;8.950;2024-02-21T12:39:13;10.10;99.90
4727;DHT22;2377;51.734;8.950;2024-02-21T12:41:44;10.20;99.90
4727;DHT22;2377;51.734;8.950;2024-02-21T12:44:15;10.30;99.90
4727;DHT22;2377;51.734;8.950;2024-02-21T12:46:44;10.30;99.90
4727;DHT22;2377;51.734;8.950;2024-02-21T12:49:26;10.30;99.90
4727;DHT22;2377;51.734;8.950;2024-02-21T12:51:56;10.30;99.90
4727;DHT22;2377;51.734;8.950;2024-02-21T12:54:23;10.30;99.90
4727;DHT22;2377;51.734;8.950;2024-02-21T12:56:53;10.30;99.90
4727;DHT22;2377;51.734;8.950;2024-02-21T12:59:20;10.30;99.90
4727;DHT22;2377;51.734;8.950;2024-02-21T13:01:49;10.30;99.90
4727;DHT22;2377;51.734;8.950;2024-02-21T13:04:18;10.30;99.90
4727;DHT22;2377;51.734;8.950;2024-02-21T13:06:47;10.40;99.90
4727;DHT22;2377;51.734;8.950;2024-02-21T13:09:16;10.50;99.90
4727;DHT22;2377;51.734;8.950;2024-02-21T13:11:46;10.70;99.90
4727;DHT22;2377;51.734;8.950;2024-02-21T13:14:18;10.70;99.90
4727;DHT22;2377;51.734;8.950;2024-02-21T13:16:52;10.70;99.90
4727;DHT22;2377;51.734;8.950;2024-02-21T13:19:20;10.70;99.90
4727;DHT22;2377;51.734;8.950;2024-02-21T13:21:47;10.70;99.90
4727;DHT22;2377;51.734;8.950;2024-02-21T13:24:17;10.80;99.90
4727;DHT22;2377;51.734;8.950;2024-02-21T13:26:46;10.70;99.90
4727;DHT22;2377;51.734;8.950;2024-02-21T13:29:14;10.60;99.90
4727;DHT22;2377;51.734;8.950;2024-02-21T13:31:47;10.60;99.90
4727;DHT22;2377;51.734;8.950;2024-02-21T13:34:17;10.50;99.90
4727;DHT22;2377;51.734;8.950;2024-02-21T13:36:44;10.60;99.90
4727;DHT22;2377;51.734;8.950;2024-02-21T13:39:15;10.60;99.90
4727;DHT22;2377;51.734;8.950;2024-02-21T13:41:50;10.60;99.90
4727;DHT22;2377;51.734;8.950;2024-02-21T13:44:24;10.70;99.90
4727;DHT22;2377;51.734;8.950;2024-02-21T13:46:53;10.80;99.90
4727;DHT22;2377;51.734;8.950;2024-02-21T13:49:24;10.70;99.90
4727;DHT22;2377;51.734;8.950;2024-02-21T13:51:52;10.80;99.90
4727;DHT22;2377;51.734;8.950;2024-02-21T13:54:21;10.80;99.90
4727;DHT22;2377;51.734;8.950;2024-02-21T13:56:49;10.80;99.90
4727;DHT22;2377;51.734;8.950;2024-02-21T13:59:17;10.80;99.90
4727;DHT22;2377;51.734;8.950;2024-02-21T14:01:44;10.70;99.90
4727;DHT22;2377;51.734;8.950;2024-02-21T14:04:15;10.60;99.90
4727;DHT22;2377;51.734;8.950;2024-02-21T14:06:44;10.60;99.90
4727;DHT22;2377;51.734;8.950;2024-02-21T14:09:12;10.60;99.90
4727;DHT22;2377;51.734;8.950;2024-02-21T14:11:39;10.50;99.90
4727;DHT22;2377;51.734;8.950;2024-02-21T14:14:11;10.50;99.90
4727;DHT22;2377;51.734;8.950;2024-02-21T14:16:40;10.50;99.90
4727;DHT22;2377;51.734;8.950;2024-02-21T14:19:08;10.40;99.90
4727;DHT22;2377;51.734;8.950;2024-02-21T14:21:40;10.30;99.90
4727;DHT22;2377;51.734;8.950;2024-02-21T14:24:07;10.30;99.90
4727;DHT22;2377;51.734;8.950;2024-02-21T14:26:36;10.30;99.90
4727;DHT22;2377;51.734;8.950;2024-02-21T14:29:05;10.30;99.90
4727;DHT22;2377;51.734;8.950;2024-02-21T14:31:35;10.20;99.90
4727;DHT22;2377;51.734;8.950;2024-02-21T14:34:03;10.20;99.90
4727;DHT22;2377;51.734;8.950;2024-02-21T14:36:33;10.20;99.90
4727;DHT22;2377;51.734;8.950;2024-02-21T14:39:04;10.10;99.90
4727;DHT22;2377;51.734;8.950;2024-02-21T14:41:32;10.10;99.90
4727;DHT22;2377;51.734;8.950;2024-02-21T14:44:00;10.10;99.90
4727;DHT22;2377;51.734;8.950;2024-02-21T14:46:30;10.10;99.90
4727;DHT22;2377;51.734;8.950;2024-02-21T14:48:58;10.00;99.90
4727;DHT22;2377;51.734;8.950;2024-02-21T14:51:27;10.00;99.90
4727;DHT22;2377;51.734;8.950;2024-02-21T14:53:56;10.10;99.90
4727;DHT22;2377;51.734;8.950;2024-02-21T14:56:27;10.00;99.90
4727;DHT22;2377;51.734;8.950;2024-02-21T14:58:58;10.00;99.90
4727;DHT22;2377;51.734;8.950;2024-02-21T15:01:27;10.00;99.90
4727;DHT22;2377;51.734;8.950;2024-02-21T15:03:54;10.00;99.90
4727;DHT22;2377;51.734;8.950;2024-02-21T15:06:23;10.00;99.90
4727;DHT22;2377;51.734;8.950;2024-02-21T15:08:51;10.00;99.90
4727;DHT22;2377;51.734;8.950;2024-02-21T15:11:25;9.90;99.90
4727;DHT22;2377;51.734;8.950;2024-02-21T15:13:54;9.80;99.90
4727;DHT22;2377;51.734;8.950;2024-02-21T15:16:22;9.80;99.90
4727;DHT22;2377;51.734;8.950;2024-02-21T15:18:50;9.80;99.90
4727;DHT22;2377;51.734;8.950;2024-02-21T15:21:18;9.70;99.90
4727;DHT22;2377;51.734;8.950;2024-02-21T15:23:45;9.70;99.90
4727;DHT22;2377;51.734;8.950;2024-02-21T15:26:16;9.60;99.90
4727;DHT22;2377;51.734;8.950;2024-02-21T15:28:46;9.60;99.90
4727;DHT22;2377;51.734;8.950;2024-02-21T15:31:20;9.60;99.90
4727;DHT22;2377;51.734;8.950;2024-02-21T15:33:58;9.50;99.90
4727;DHT22;2377;51.734;8.950;2024-02-21T15:36:28;9.50;99.90
4727;DHT22;2377;51.734;8.950;2024-02-21T15:38:57;9.50;99.90
4727;DHT22;2377;51.734;8.950;2024-02-21T15:41:27;9.50;99.90
4727;DHT22;2377;51.734;8.950;2024-02-21T15:43:58;9.50;99.90
4727;DHT22;2377;51.734;8.950;2024-02-21T15:46:25;9.50;99.90
4727;DHT22;2377;51.734;8.950;2024-02-21T15:48:54;9.50;99.90
4727;DHT22;2377;51.734;8.950;2024-02-21T15:51:22;9.50;99.90
4727;DHT22;2377;51.734;8.950;2024-02-21T15:53:53;9.40;99.90
4727;DHT22;2377;51.734;8.950;2024-02-21T15:56:22;9.40;99.90
4727;DHT22;2377;51.734;8.950;2024-02-21T15:58:50;9.40;99.90
4727;DHT22;2377;51.734;8.950;2024-02-21T16:01:25;9.40;99.90
4727;DHT22;2377;51.734;8.950;2024-02-21T16:03:54;9.30;99.90
4727;DHT22;2377;51.734;8.950;2024-02-21T16:06:24;9.30;99.90
4727;DHT22;2377;51.734;8.950;2024-02-21T16:08:52;9.20;99.90
4727;DHT22;2377;51.734;8.950;2024-02-21T16:11:22;9.30;99.90
4727;DHT22;2377;51.734;8.950;2024-02-21T16:13:50;9.20;99.90
4727;DHT22;2377;51.734;8.950;2024-02-21T16:16:18;9.20;99.90
4727;DHT22;2377;51.734;8.950;2024-02-21T16:18:49;9.20;99.90
4727;DHT22;2377;51.734;8.950;2024-02-21T16:21:17;9.10;99.90
4727;DHT22;2377;51.734;8.950;2024-02-21T16:23:44;9.20;99.90
4727;DHT22;2377;51.734;8.950;2024-02-21T16:26:12;9.10;99.90
4727;DHT22;2377;51.734;8.950;2024-02-21T16:28:41;9.10;99.90
4727;DHT22;2377;51.734;8.950;2024-02-21T16:31:11;9.10;99.90
4727;DHT22;2377;51.734;8.950;2024-02-21T16:33:43;9.10;99.90
4727;DHT22;2377;51.734;8.950;2024-02-21T16:36:21;9.10;99.90
4727;DHT22;2377;51.734;8.950;2024-02-21T16:38:50;9.00;99.90